sensor_id;sensor_type;location;lat;lon;timestamp;P1;durP1;ratioP1;P2;durP2;ratioP2
12048;SDS011;6085;49.452;8.502;2024-03-02T00:02:23;8.77;;;6.18;;
12048;SDS011;6085;49.452;8.502;2024-03-02T00:06:25;8.98;;;5.68;;
12048;SDS011;6085;49.452;8.502;2024-03-02T00:10:31;10.50;;;5.63;;
12048;SDS011;6085;49.452;8.502;2024-03-02T00:14:39;7.20;;;5.15;;
12048;SDS011;6085;49.452;8.502;2024-03-02T00:18:41;7.82;;;4.63;;
12048;SDS011;6085;49.452;8.502;2024-03-02T00:22:43;8.52;;;5.25;;
12048;SDS011;6085;49.452;8.502;2024-03-02T00:26:47;7.68;;;5.22;;
12048;SDS011;6085;49.452;8.502;2024-03-02T00:30:54;9.05;;;5.45;;
12048;SDS011;6085;49.452;8.502;2024-03-02T00:34:58;9.65;;;5.32;;
12048;SDS011;6085;49.452;8.502;2024-03-02T00:38:59;5.70;;;5.07;;
12048;SDS011;6085;49.452;8.502;2024-03-02T00:43:03;7.32;;;4.35;;
12048;SDS011;6085;49.452;8.502;2024-03-02T00:47:05;6.93;;;4.68;;
12048;SDS011;6085;49.452;8.502;2024-03-02T00:51:07;6.05;;;3.60;;
12048;SDS011;6085;49.452;8.502;2024-03-02T00:55:10;6.97;;;3.63;;
12048;SDS011;6085;49.452;8.502;2024-03-02T00:59:14;4.70;;;2.97;;
12048;SDS011;6085;49.452;8.502;2024-03-02T01:03:16;6.38;;;3.72;;
12048;SDS011;6085;49.452;8.502;2024-03-02T01:07:19;6.53;;;3.63;;
12048;SDS011;6085;49.452;8.502;2024-03-02T01:11:21;4.13;;;3.08;;
12048;SDS011;6085;49.452;8.502;2024-03-02T01:15:24;3.17;;;2.88;;
12048;SDS011;6085;49.452;8.502;2024-03-02T01:19:26;3.47;;;2.75;;
12048;SDS011;6085;49.452;8.502;2024-03-02T01:23:28;3.58;;;2.92;;
12048;SDS011;6085;49.452;8.502;2024-03-02T01:27:30;5.45;;;3.65;;
12048;SDS011;6085;49.452;8.502;2024-03-02T01:31:33;6.90;;;4.15;;
12048;SDS011;6085;49.452;8.502;2024-03-02T01:35:35;5.63;;;4.00;;
12048;SDS011;6085;49.452;8.502;2024-03-02T01:39:37;4.95;;;3.30;;
12048;SDS011;6085;49.452;8.502;2024-03-02T01:43:39;3.60;;;3.17;;
12048;SDS011;6085;49.452;8.502;2024-03-02T01:47:42;5.57;;;3.47;;
12048;SDS011;6085;49.452;8.502;2024-03-02T01:51:44;3.33;;;2.72;;
12048;SDS011;6085;49.452;8.502;2024-03-02T01:55:46;4.45;;;3.20;;
12048;SDS011;6085;49.452;8.502;2024-03-02T01:59:48;4.68;;;4.07;;
12048;SDS011;6085;49.452;8.502;2024-03-02T02:03:52;6.28;;;3.72;;
12048;SDS011;6085;49.452;8.502;2024-03-02T02:07:54;3.83;;;3.00;;
12048;SDS011;6085;49.452;8.502;2024-03-02T02:11:58;6.70;;;3.80;;
12048;SDS011;6085;49.452;8.502;2024-03-02T02:16:04;5.50;;;4.32;;
12048;SDS011;6085;49.452;8.502;2024-03-02T02:20:08;3.65;;;3.08;;
12048;SDS011;6085;49.452;8.502;2024-03-02T02:24:12;4.63;;;3.90;;
12048;SDS011;6085;49.452;8.502;2024-03-02T02:28:14;4.53;;;3.88;;
12048;SDS011;6085;49.452;8.502;2024-03-02T02:32:16;3.95;;;3.05;;
12048;SDS011;6085;49.452;8.502;2024-03-02T02:36:17;4.25;;;3.25;;
12048;SDS011;6085;49.452;8.502;2024-03-02T02:40:21;4.97;;;3.30;;
12048;SDS011;6085;49.452;8.502;2024-03-02T02:44:23;3.75;;;3.13;;
12048;SDS011;6085;49.452;8.502;2024-03-02T02:48:25;8.63;;;4.38;;
12048;SDS011;6085;49.452;8.502;2024-03-02T02:52:30;4.28;;;3.28;;
12048;SDS011;6085;49.452;8.502;2024-03-02T02:56:34;2.88;;;2.60;;
12048;SDS011;6085;49.452;8.502;2024-03-02T03:00:36;6.40;;;4.10;;
12048;SDS011;6085;49.452;8.502;2024-03-02T03:04:39;3.67;;;3.17;;
12048;SDS011;6085;49.452;8.502;2024-03-02T03:08:41;4.00;;;3.25;;
12048;SDS011;6085;49.452;8.502;2024-03-02T03:12:44;5.25;;;3.10;;
12048;SDS011;6085;49.452;8.502;2024-03-02T03:16:46;5.22;;;2.85;;
12048;SDS011;6085;49.452;8.502;2024-03-02T03:20:48;4.55;;;3.15;;
12048;SDS011;6085;49.452;8.502;2024-03-02T03:24:50;6.43;;;3.28;;
12048;SDS011;6085;49.452;8.502;2024-03-02T03:28:53;5.65;;;3.70;;
12048;SDS011;6085;49.452;8.502;2024-03-02T03:32:55;5.22;;;3.88;;
12048;SDS011;6085;49.452;8.502;2024-03-02T03:36:57;4.68;;;3.25;;
12048;SDS011;6085;49.452;8.502;2024-03-02T03:40:59;5.13;;;3.50;;
12048;SDS011;6085;49.452;8.502;2024-03-02T03:45:02;3.22;;;2.47;;
12048;SDS011;6085;49.452;8.502;2024-03-02T03:49:04;4.45;;;3.33;;
12048;SDS011;6085;49.452;8.502;2024-03-02T03:53:06;4.63;;;3.25;;
12048;SDS011;6085;49.452;8.502;2024-03-02T03:57:08;4.03;;;3.25;;
12048;SDS011;6085;49.452;8.502;2024-03-02T04:01:11;4.63;;;2.97;;
12048;SDS011;6085;49.452;8.502;2024-03-02T04:05:13;4.68;;;3.67;;
12048;SDS011;6085;49.452;8.502;2024-03-02T04:09:15;4.97;;;2.97;;
12048;SDS011;6085;49.452;8.502;2024-03-02T04:13:17;4.35;;;3.92;;
12048;SDS011;6085;49.452;8.502;2024-03-02T04:17:20;6.90;;;3.05;;
12048;SDS011;6085;49.452;8.502;2024-03-02T04:21:22;3.95;;;2.75;;
12048;SDS011;6085;49.452;8.502;2024-03-02T04:25:23;5.20;;;3.08;;
12048;SDS011;6085;49.452;8.502;2024-03-02T04:29:25;4.05;;;3.00;;
12048;SDS011;6085;49.452;8.502;2024-03-02T04:33:29;5.80;;;3.17;;
12048;SDS011;6085;49.452;8.502;2024-03-02T04:37:31;3.72;;;3.38;;
12048;SDS011;6085;49.452;8.502;2024-03-02T04:41:34;3.83;;;3.30;;
12048;SDS011;6085;49.452;8.502;2024-03-02T04:45:37;5.78;;;3.65;;
12048;SDS011;6085;49.452;8.502;2024-03-02T04:49:40;5.68;;;4.07;;
12048;SDS011;6085;49.452;8.502;2024-03-02T04:53:43;4.57;;;3.78;;
12048;SDS011;6085;49.452;8.502;2024-03-02T04:57:45;5.72;;;4.10;;
12048;SDS011;6085;49.452;8.502;2024-03-02T05:01:47;4.95;;;3.40;;
12048;SDS011;6085;49.452;8.502;2024-03-02T05:05:50;6.88;;;4.40;;
12048;SDS011;6085;49.452;8.502;2024-03-02T05:09:52;5.53;;;4.10;;
12048;SDS011;6085;49.452;8.502;2024-03-02T05:13:54;8.32;;;4.25;;
12048;SDS011;6085;49.452;8.502;2024-03-02T05:17:56;4.43;;;3.63;;
12048;SDS011;6085;49.452;8.502;2024-03-02T05:22:00;8.57;;;3.70;;
12048;SDS011;6085;49.452;8.502;2024-03-02T05:26:03;6.13;;;3.42;;
12048;SDS011;6085;49.452;8.502;2024-03-02T05:30:05;5.68;;;3.53;;
12048;SDS011;6085;49.452;8.502;2024-03-02T05:34:08;4.65;;;3.42;;
12048;SDS011;6085;49.452;8.502;2024-03-02T05:38:11;4.30;;;3.13;;
12048;SDS011;6085;49.452;8.502;2024-03-02T05:42:13;5.80;;;3.85;;
12048;SDS011;6085;49.452;8.502;2024-03-02T05:46:16;4.45;;;3.67;;
12048;SDS011;6085;49.452;8.502;2024-03-02T05:50:18;8.07;;;4.00;;
12048;SDS011;6085;49.452;8.502;2024-03-02T05:54:22;4.22;;;3.70;;
12048;SDS011;6085;49.452;8.502;2024-03-02T05:58:24;5.03;;;3.58;;
12048;SDS011;6085;49.452;8.502;2024-03-02T06:02:38;7.68;;;4.10;;
12048;SDS011;6085;49.452;8.502;2024-03-02T06:06:40;4.10;;;3.22;;
12048;SDS011;6085;49.452;8.502;2024-03-02T06:10:44;4.75;;;3.63;;
12048;SDS011;6085;49.452;8.502;2024-03-02T06:14:46;5.97;;;4.20;;
12048;SDS011;6085;49.452;8.502;2024-03-02T06:18:48;3.25;;;2.97;;
12048;SDS011;6085;49.452;8.502;2024-03-02T06:22:50;7.38;;;5.03;;
12048;SDS011;6085;49.452;8.502;2024-03-02T06:26:53;5.82;;;3.58;;
12048;SDS011;6085;49.452;8.502;2024-03-02T06:30:55;4.75;;;4.03;;
12048;SDS011;6085;49.452;8.502;2024-03-02T06:34:57;4.57;;;3.63;;
12048;SDS011;6085;49.452;8.502;2024-03-02T06:38:59;4.05;;;3.67;;
12048;SDS011;6085;49.452;8.502;2024-03-02T06:43:03;4.90;;;3.58;;
12048;SDS011;6085;49.452;8.502;2024-03-02T06:47:05;5.47;;;3.80;;
12048;SDS011;6085;49.452;8.502;2024-03-02T06:51:07;3.83;;;2.85;;
12048;SDS011;6085;49.452;8.502;2024-03-02T06:55:09;5.22;;;3.67;;
12048;SDS011;6085;49.452;8.502;2024-03-02T06:59:12;4.00;;;3.20;;
12048;SDS011;6085;49.452;8.502;2024-03-02T07:03:14;5.35;;;3.55;;
12048;SDS011;6085;49.452;8.502;2024-03-02T07:07:16;5.93;;;3.45;;
12048;SDS011;6085;49.452;8.502;2024-03-02T07:11:18;5.43;;;3.80;;
12048;SDS011;6085;49.452;8.502;2024-03-02T07:15:21;5.72;;;3.67;;
12048;SDS011;6085;49.452;8.502;2024-03-02T07:19:37;5.85;;;3.42;;
12048;SDS011;6085;49.452;8.502;2024-03-02T07:23:39;4.15;;;3.25;;
12048;SDS011;6085;49.452;8.502;2024-03-02T07:27:41;4.82;;;3.92;;
12048;SDS011;6085;49.452;8.502;2024-03-02T07:31:45;4.28;;;3.22;;
12048;SDS011;6085;49.452;8.502;2024-03-02T07:35:47;6.88;;;3.72;;
12048;SDS011;6085;49.452;8.502;2024-03-02T07:39:49;5.35;;;4.18;;
12048;SDS011;6085;49.452;8.502;2024-03-02T07:43:51;5.78;;;4.18;;
12048;SDS011;6085;49.452;8.502;2024-03-02T07:47:54;4.50;;;4.10;;
12048;SDS011;6085;49.452;8.502;2024-03-02T07:51:56;5.68;;;3.97;;
12048;SDS011;6085;49.452;8.502;2024-03-02T07:55:58;4.10;;;3.33;;
12048;SDS011;6085;49.452;8.502;2024-03-02T08:00:02;5.43;;;3.92;;
12048;SDS011;6085;49.452;8.502;2024-03-02T08:04:06;5.82;;;3.80;;
12048;SDS011;6085;49.452;8.502;2024-03-02T08:08:08;4.63;;;3.47;;
12048;SDS011;6085;49.452;8.502;2024-03-02T08:12:10;4.80;;;3.50;;
12048;SDS011;6085;49.452;8.502;2024-03-02T08:16:12;3.50;;;3.13;;
12048;SDS011;6085;49.452;8.502;2024-03-02T08:20:15;5.25;;;3.53;;
12048;SDS011;6085;49.452;8.502;2024-03-02T08:24:17;4.88;;;3.55;;
12048;SDS011;6085;49.452;8.502;2024-03-02T08:28:19;4.85;;;2.38;;
12048;SDS011;6085;49.452;8.502;2024-03-02T08:32:21;2.88;;;2.63;;
12048;SDS011;6085;49.452;8.502;2024-03-02T08:36:24;3.30;;;2.97;;
12048;SDS011;6085;49.452;8.502;2024-03-02T08:40:26;4.13;;;2.83;;
12048;SDS011;6085;49.452;8.502;2024-03-02T08:44:28;3.47;;;2.65;;
12048;SDS011;6085;49.452;8.502;2024-03-02T08:48:30;5.18;;;2.85;;
12048;SDS011;6085;49.452;8.502;2024-03-02T08:52:33;3.80;;;2.90;;
12048;SDS011;6085;49.452;8.502;2024-03-02T08:56:35;3.47;;;3.00;;
12048;SDS011;6085;49.452;8.502;2024-03-02T09:00:37;4.10;;;3.20;;
12048;SDS011;6085;49.452;8.502;2024-03-02T09:04:39;4.53;;;3.03;;
12048;SDS011;6085;49.452;8.502;2024-03-02T09:08:42;3.75;;;3.13;;
12048;SDS011;6085;49.452;8.502;2024-03-02T09:12:44;4.07;;;2.90;;
12048;SDS011;6085;49.452;8.502;2024-03-02T09:16:46;3.00;;;2.78;;
12048;SDS011;6085;49.452;8.502;2024-03-02T09:20:48;5.20;;;3.50;;
12048;SDS011;6085;49.452;8.502;2024-03-02T09:24:51;3.88;;;3.45;;
12048;SDS011;6085;49.452;8.502;2024-03-02T09:28:53;4.10;;;2.88;;
12048;SDS011;6085;49.452;8.502;2024-03-02T09:32:55;3.47;;;2.83;;
12048;SDS011;6085;49.452;8.502;2024-03-02T09:36:57;3.70;;;2.85;;
12048;SDS011;6085;49.452;8.502;2024-03-02T09:41:00;3.55;;;2.55;;
12048;SDS011;6085;49.452;8.502;2024-03-02T09:45:03;3.33;;;2.85;;
12048;SDS011;6085;49.452;8.502;2024-03-02T09:49:06;3.42;;;2.50;;
12048;SDS011;6085;49.452;8.502;2024-03-02T09:53:08;5.82;;;2.58;;
12048;SDS011;6085;49.452;8.502;2024-03-02T09:57:13;3.67;;;2.47;;
12048;SDS011;6085;49.452;8.502;2024-03-02T10:01:15;3.55;;;2.85;;
12048;SDS011;6085;49.452;8.502;2024-03-02T10:05:23;3.25;;;2.50;;
12048;SDS011;6085;49.452;8.502;2024-03-02T10:09:26;3.53;;;2.50;;
12048;SDS011;6085;49.452;8.502;2024-03-02T10:13:30;2.75;;;2.55;;
12048;SDS011;6085;49.452;8.502;2024-03-02T10:17:32;4.13;;;2.80;;
12048;SDS011;6085;49.452;8.502;2024-03-02T10:21:34;3.15;;;2.50;;
12048;SDS011;6085;49.452;8.502;2024-03-02T10:25:36;3.30;;;2.40;;
12048;SDS011;6085;49.452;8.502;2024-03-02T10:29:39;2.53;;;2.28;;
12048;SDS011;6085;49.452;8.502;2024-03-02T10:33:42;2.13;;;1.95;;
12048;SDS011;6085;49.452;8.502;2024-03-02T10:37:43;3.25;;;2.00;;
12048;SDS011;6085;49.452;8.502;2024-03-02T10:41:45;1.98;;;1.77;;
12048;SDS011;6085;49.452;8.502;2024-03-02T10:45:51;2.20;;;2.00;;
12048;SDS011;6085;49.452;8.502;2024-03-02T10:49:55;1.70;;;1.60;;
12048;SDS011;6085;49.452;8.502;2024-03-02T10:54:00;2.13;;;1.80;;
12048;SDS011;6085;49.452;8.502;2024-03-02T10:58:04;3.28;;;1.85;;
12048;SDS011;6085;49.452;8.502;2024-03-02T11:02:08;4.30;;;1.83;;
12048;SDS011;6085;49.452;8.502;2024-03-02T11:06:13;2.53;;;1.88;;
12048;SDS011;6085;49.452;8.502;2024-03-02T11:10:15;2.30;;;1.70;;
12048;SDS011;6085;49.452;8.502;2024-03-02T11:14:17;1.80;;;1.30;;
12048;SDS011;6085;49.452;8.502;2024-03-02T11:18:26;1.70;;;1.60;;
12048;SDS011;6085;49.452;8.502;2024-03-02T11:22:28;1.80;;;1.30;;
12048;SDS011;6085;49.452;8.502;2024-03-02T11:26:31;1.35;;;1.33;;
12048;SDS011;6085;49.452;8.502;2024-03-02T11:30:49;1.25;;;1.13;;
12048;SDS011;6085;49.452;8.502;2024-03-02T11:34:53;2.25;;;1.42;;
12048;SDS011;6085;49.452;8.502;2024-03-02T11:38:55;2.05;;;1.63;;
12048;SDS011;6085;49.452;8.502;2024-03-02T11:42:58;1.48;;;1.30;;
12048;SDS011;6085;49.452;8.502;2024-03-02T11:47:01;1.58;;;1.20;;
12048;SDS011;6085;49.452;8.502;2024-03-02T11:51:05;1.23;;;1.10;;
12048;SDS011;6085;49.452;8.502;2024-03-02T11:55:09;1.42;;;1.10;;
12048;SDS011;6085;49.452;8.502;2024-03-02T11:59:12;1.25;;;1.13;;
12048;SDS011;6085;49.452;8.502;2024-03-02T12:03:15;2.03;;;1.10;;
12048;SDS011;6085;49.452;8.502;2024-03-02T12:07:22;1.42;;;0.80;;
12048;SDS011;6085;49.452;8.502;2024-03-02T12:11:24;1.20;;;1.10;;
12048;SDS011;6085;49.452;8.502;2024-03-02T12:15:26;1.50;;;1.40;;
12048;SDS011;6085;49.452;8.502;2024-03-02T12:19:28;0.93;;;0.93;;
12048;SDS011;6085;49.452;8.502;2024-03-02T12:23:33;1.05;;;1.00;;
12048;SDS011;6085;49.452;8.502;2024-03-02T12:27:35;1.30;;;1.20;;
12048;SDS011;6085;49.452;8.502;2024-03-02T12:31:37;1.02;;;0.80;;
12048;SDS011;6085;49.452;8.502;2024-03-02T12:35:40;0.82;;;0.82;;
12048;SDS011;6085;49.452;8.502;2024-03-02T12:39:45;0.98;;;0.90;;
12048;SDS011;6085;49.452;8.502;2024-03-02T12:43:47;0.70;;;0.70;;
12048;SDS011;6085;49.452;8.502;2024-03-02T12:47:49;0.47;;;0.47;;
12048;SDS011;6085;49.452;8.502;2024-03-02T12:51:51;0.57;;;0.45;;
12048;SDS011;6085;49.452;8.502;2024-03-02T12:55:56;0.80;;;0.80;;
12048;SDS011;6085;49.452;8.502;2024-03-02T12:59:58;0.85;;;0.85;;
12048;SDS011;6085;49.452;8.502;2024-03-02T13:04:00;0.90;;;0.60;;
12048;SDS011;6085;49.452;8.502;2024-03-02T13:08:04;0.60;;;0.60;;
12048;SDS011;6085;49.452;8.502;2024-03-02T13:12:08;1.00;;;0.57;;
12048;SDS011;6085;49.452;8.502;2024-03-02T13:16:11;0.45;;;0.45;;
12048;SDS011;6085;49.452;8.502;2024-03-02T13:20:13;0.40;;;0.40;;
12048;SDS011;6085;49.452;8.502;2024-03-02T13:24:18;0.45;;;0.45;;
12048;SDS011;6085;49.452;8.502;2024-03-02T13:28:21;0.77;;;0.65;;
12048;SDS011;6085;49.452;8.502;2024-03-02T13:32:23;1.00;;;0.70;;
12048;SDS011;6085;49.452;8.502;2024-03-02T13:36:26;0.68;;;0.68;;
12048;SDS011;6085;49.452;8.502;2024-03-02T13:40:27;1.23;;;1.13;;
12048;SDS011;6085;49.452;8.502;2024-03-02T13:44:32;1.17;;;1.08;;
12048;SDS011;6085;49.452;8.502;2024-03-02T13:48:34;1.40;;;1.30;;
12048;SDS011;6085;49.452;8.502;2024-03-02T13:52:36;1.50;;;1.40;;
12048;SDS011;6085;49.452;8.502;2024-03-02T13:56:38;1.10;;;0.90;;
12048;SDS011;6085;49.452;8.502;2024-03-02T14:00:42;1.25;;;1.15;;
12048;SDS011;6085;49.452;8.502;2024-03-02T14:04:46;2.28;;;1.30;;
12048;SDS011;6085;49.452;8.502;2024-03-02T14:08:50;1.17;;;1.08;;
12048;SDS011;6085;49.452;8.502;2024-03-02T14:12:51;1.30;;;1.20;;
12048;SDS011;6085;49.452;8.502;2024-03-02T14:16:57;1.60;;;1.50;;
12048;SDS011;6085;49.452;8.502;2024-03-02T14:21:00;1.33;;;1.20;;
12048;SDS011;6085;49.452;8.502;2024-03-02T14:25:04;1.40;;;1.30;;
12048;SDS011;6085;49.452;8.502;2024-03-02T14:29:06;0.98;;;0.88;;
12048;SDS011;6085;49.452;8.502;2024-03-02T14:33:09;1.08;;;0.98;;
12048;SDS011;6085;49.452;8.502;2024-03-02T14:37:12;2.88;;;0.70;;
12048;SDS011;6085;49.452;8.502;2024-03-02T14:41:14;0.88;;;0.88;;
12048;SDS011;6085;49.452;8.502;2024-03-02T14:45:16;1.42;;;1.17;;
12048;SDS011;6085;49.452;8.502;2024-03-02T14:49:19;1.15;;;0.90;;
12048;SDS011;6085;49.452;8.502;2024-03-02T14:53:21;1.10;;;1.00;;
12048;SDS011;6085;49.452;8.502;2024-03-02T14:57:23;1.40;;;1.30;;
12048;SDS011;6085;49.452;8.502;2024-03-02T15:01:25;1.20;;;1.10;;
12048;SDS011;6085;49.452;8.502;2024-03-02T15:05:28;1.05;;;0.85;;
12048;SDS011;6085;49.452;8.502;2024-03-02T15:09:30;1.38;;;1.00;;
12048;SDS011;6085;49.452;8.502;2024-03-02T15:13:33;0.85;;;0.85;;
12048;SDS011;6085;49.452;8.502;2024-03-02T15:17:35;1.08;;;0.90;;
12048;SDS011;6085;49.452;8.502;2024-03-02T15:21:39;2.20;;;1.55;;
12048;SDS011;6085;49.452;8.502;2024-03-02T15:25:40;1.60;;;1.50;;
12048;SDS011;6085;49.452;8.502;2024-03-02T15:29:43;2.08;;;0.75;;
12048;SDS011;6085;49.452;8.502;2024-03-02T15:33:44;0.70;;;0.70;;
12048;SDS011;6085;49.452;8.502;2024-03-02T15:37:48;0.68;;;0.68;;
12048;SDS011;6085;49.452;8.502;2024-03-02T15:41:49;0.75;;;0.75;;
12048;SDS011;6085;49.452;8.502;2024-03-02T15:45:52;1.63;;;1.00;;
12048;SDS011;6085;49.452;8.502;2024-03-02T15:49:54;0.68;;;0.68;;
12048;SDS011;6085;49.452;8.502;2024-03-02T15:53:57;0.98;;;0.90;;
12048;SDS011;6085;49.452;8.502;2024-03-02T15:57:59;0.85;;;0.85;;
12048;SDS011;6085;49.452;8.502;2024-03-02T16:02:03;1.00;;;1.00;;
12048;SDS011;6085;49.452;8.502;2024-03-02T16:06:06;0.60;;;0.60;;
12048;SDS011;6085;49.452;8.502;2024-03-02T16:10:12;0.82;;;0.77;;
12048;SDS011;6085;49.452;8.502;2024-03-02T16:14:14;0.55;;;0.52;;
12048;SDS011;6085;49.452;8.502;2024-03-02T16:18:16;0.65;;;0.65;;
12048;SDS011;6085;49.452;8.502;2024-03-02T16:22:18;0.75;;;0.60;;
12048;SDS011;6085;49.452;8.502;2024-03-02T16:26:21;0.65;;;0.65;;
12048;SDS011;6085;49.452;8.502;2024-03-02T16:30:23;1.50;;;0.82;;
12048;SDS011;6085;49.452;8.502;2024-03-02T16:34:25;0.80;;;0.80;;
12048;SDS011;6085;49.452;8.502;2024-03-02T16:38:27;0.80;;;0.80;;
12048;SDS011;6085;49.452;8.502;2024-03-02T16:42:31;1.00;;;0.85;;
12048;SDS011;6085;49.452;8.502;2024-03-02T16:46:32;0.60;;;0.60;;
12048;SDS011;6085;49.452;8.502;2024-03-02T16:50:34;0.70;;;0.70;;
12048;SDS011;6085;49.452;8.502;2024-03-02T16:54:36;0.55;;;0.55;;
12048;SDS011;6085;49.452;8.502;2024-03-02T16:58:39;0.65;;;0.65;;
12048;SDS011;6085;49.452;8.502;2024-03-02T17:02:41;0.95;;;0.95;;
12048;SDS011;6085;49.452;8.502;2024-03-02T17:06:45;2.17;;;1.45;;
12048;SDS011;6085;49.452;8.502;2024-03-02T17:10:47;2.08;;;1.80;;
12048;SDS011;6085;49.452;8.502;2024-03-02T17:14:51;1.90;;;1.63;;
12048;SDS011;6085;49.452;8.502;2024-03-02T17:18:53;4.43;;;1.85;;
12048;SDS011;6085;49.452;8.502;2024-03-02T17:22:55;2.67;;;1.30;;
12048;SDS011;6085;49.452;8.502;2024-03-02T17:26:57;2.63;;;1.80;;
12048;SDS011;6085;49.452;8.502;2024-03-02T17:31:00;2.05;;;1.77;;
12048;SDS011;6085;49.452;8.502;2024-03-02T17:35:04;2.17;;;1.88;;
12048;SDS011;6085;49.452;8.502;2024-03-02T17:39:06;4.05;;;2.75;;
12048;SDS011;6085;49.452;8.502;2024-03-02T17:43:09;6.30;;;2.53;;
12048;SDS011;6085;49.452;8.502;2024-03-02T17:47:12;4.35;;;2.45;;
12048;SDS011;6085;49.452;8.502;2024-03-02T17:51:15;7.13;;;3.25;;
12048;SDS011;6085;49.452;8.502;2024-03-02T17:55:17;3.90;;;2.28;;
12048;SDS011;6085;49.452;8.502;2024-03-02T17:59:19;1.98;;;1.85;;
12048;SDS011;6085;49.452;8.502;2024-03-02T18:03:22;2.85;;;1.50;;
12048;SDS011;6085;49.452;8.502;2024-03-02T18:07:24;1.33;;;1.23;;
12048;SDS011;6085;49.452;8.502;2024-03-02T18:11:26;1.90;;;1.17;;
12048;SDS011;6085;49.452;8.502;2024-03-02T18:15:27;3.13;;;1.83;;
12048;SDS011;6085;49.452;8.502;2024-03-02T18:19:30;1.60;;;1.50;;
12048;SDS011;6085;49.452;8.502;2024-03-02T18:23:32;2.65;;;2.05;;
12048;SDS011;6085;49.452;8.502;2024-03-02T18:27:34;3.17;;;2.20;;
12048;SDS011;6085;49.452;8.502;2024-03-02T18:31:36;1.92;;;1.83;;
12048;SDS011;6085;49.452;8.502;2024-03-02T18:35:39;3.15;;;1.92;;
12048;SDS011;6085;49.452;8.502;2024-03-02T18:39:41;1.98;;;1.48;;
12048;SDS011;6085;49.452;8.502;2024-03-02T18:43:43;1.60;;;1.27;;
12048;SDS011;6085;49.452;8.502;2024-03-02T18:47:45;1.65;;;1.13;;
12048;SDS011;6085;49.452;8.502;2024-03-02T18:51:48;1.33;;;1.23;;
12048;SDS011;6085;49.452;8.502;2024-03-02T18:55:50;1.60;;;1.08;;
12048;SDS011;6085;49.452;8.502;2024-03-02T18:59:51;0.80;;;0.80;;
12048;SDS011;6085;49.452;8.502;2024-03-02T19:03:53;1.23;;;0.95;;
12048;SDS011;6085;49.452;8.502;2024-03-02T19:07:56;2.72;;;1.10;;
12048;SDS011;6085;49.452;8.502;2024-03-02T19:11:58;1.15;;;1.02;;
12048;SDS011;6085;49.452;8.502;2024-03-02T19:16:00;1.38;;;1.25;;
12048;SDS011;6085;49.452;8.502;2024-03-02T19:20:02;1.33;;;1.23;;
12048;SDS011;6085;49.452;8.502;2024-03-02T19:24:06;2.33;;;2.13;;
12048;SDS011;6085;49.452;8.502;2024-03-02T19:28:08;1.65;;;1.55;;
12048;SDS011;6085;49.452;8.502;2024-03-02T19:32:10;3.63;;;1.80;;
12048;SDS011;6085;49.452;8.502;2024-03-02T19:36:12;2.80;;;2.08;;
12048;SDS011;6085;49.452;8.502;2024-03-02T19:40:15;4.18;;;2.30;;
12048;SDS011;6085;49.452;8.502;2024-03-02T19:44:17;3.40;;;2.42;;
12048;SDS011;6085;49.452;8.502;2024-03-02T19:48:19;2.88;;;2.17;;
12048;SDS011;6085;49.452;8.502;2024-03-02T19:52:21;3.53;;;2.20;;
12048;SDS011;6085;49.452;8.502;2024-03-02T19:56:24;4.15;;;3.13;;
12048;SDS011;6085;49.452;8.502;2024-03-02T20:00:25;4.07;;;2.97;;
12048;SDS011;6085;49.452;8.502;2024-03-02T20:04:27;4.38;;;3.10;;
12048;SDS011;6085;49.452;8.502;2024-03-02T20:08:29;4.30;;;2.63;;
12048;SDS011;6085;49.452;8.502;2024-03-02T20:12:33;4.63;;;2.65;;
12048;SDS011;6085;49.452;8.502;2024-03-02T20:16:35;4.05;;;3.05;;
12048;SDS011;6085;49.452;8.502;2024-03-02T20:20:36;5.72;;;3.33;;
12048;SDS011;6085;49.452;8.502;2024-03-02T20:24:39;4.38;;;3.13;;
12048;SDS011;6085;49.452;8.502;2024-03-02T20:28:43;5.57;;;3.05;;
12048;SDS011;6085;49.452;8.502;2024-03-02T20:32:45;3.35;;;2.67;;
12048;SDS011;6085;49.452;8.502;2024-03-02T20:36:47;3.63;;;2.83;;
12048;SDS011;6085;49.452;8.502;2024-03-02T20:40:49;4.45;;;2.90;;
12048;SDS011;6085;49.452;8.502;2024-03-02T20:44:52;4.70;;;3.13;;
12048;SDS011;6085;49.452;8.502;2024-03-02T20:48:54;4.57;;;3.40;;
12048;SDS011;6085;49.452;8.502;2024-03-02T20:52:57;3.13;;;2.70;;
12048;SDS011;6085;49.452;8.502;2024-03-02T20:57:00;4.65;;;3.13;;
12048;SDS011;6085;49.452;8.502;2024-03-02T21:01:07;5.30;;;3.15;;
12048;SDS011;6085;49.452;8.502;2024-03-02T21:05:08;3.33;;;3.00;;
12048;SDS011;6085;49.452;8.502;2024-03-02T21:09:10;6.22;;;3.47;;
12048;SDS011;6085;49.452;8.502;2024-03-02T21:13:12;4.68;;;3.53;;
12048;SDS011;6085;49.452;8.502;2024-03-02T21:17:15;5.10;;;3.38;;
12048;SDS011;6085;49.452;8.502;2024-03-02T21:21:17;3.65;;;2.90;;
12048;SDS011;6085;49.452;8.502;2024-03-02T21:25:19;6.00;;;3.90;;
12048;SDS011;6085;49.452;8.502;2024-03-02T21:29:21;4.75;;;3.42;;
12048;SDS011;6085;49.452;8.502;2024-03-02T21:33:27;7.88;;;3.05;;
12048;SDS011;6085;49.452;8.502;2024-03-02T21:37:29;3.70;;;2.90;;
12048;SDS011;6085;49.452;8.502;2024-03-02T21:41:31;5.50;;;3.83;;
12048;SDS011;6085;49.452;8.502;2024-03-02T21:45:32;4.38;;;3.03;;
12048;SDS011;6085;49.452;8.502;2024-03-02T21:49:36;3.42;;;2.72;;
12048;SDS011;6085;49.452;8.502;2024-03-02T21:53:37;4.80;;;3.40;;
12048;SDS011;6085;49.452;8.502;2024-03-02T21:57:39;5.13;;;3.42;;
12048;SDS011;6085;49.452;8.502;2024-03-02T22:01:42;4.30;;;3.40;;
12048;SDS011;6085;49.452;8.502;2024-03-02T22:05:45;4.68;;;3.15;;
12048;SDS011;6085;49.452;8.502;2024-03-02T22:09:47;5.00;;;2.92;;
12048;SDS011;6085;49.452;8.502;2024-03-02T22:13:48;3.80;;;2.60;;
12048;SDS011;6085;49.452;8.502;2024-03-02T22:17:50;5.07;;;2.65;;
12048;SDS011;6085;49.452;8.502;2024-03-02T22:21:54;4.80;;;3.42;;
12048;SDS011;6085;49.452;8.502;2024-03-02T22:25:57;5.22;;;3.75;;
12048;SDS011;6085;49.452;8.502;2024-03-02T22:30:00;4.88;;;3.50;;
12048;SDS011;6085;49.452;8.502;2024-03-02T22:34:02;6.07;;;4.00;;
12048;SDS011;6085;49.452;8.502;2024-03-02T22:38:05;3.42;;;2.78;;
12048;SDS011;6085;49.452;8.502;2024-03-02T22:42:08;9.45;;;3.75;;
12048;SDS011;6085;49.452;8.502;2024-03-02T22:46:11;5.45;;;3.28;;
12048;SDS011;6085;49.452;8.502;2024-03-02T22:50:13;4.65;;;2.95;;
12048;SDS011;6085;49.452;8.502;2024-03-02T22:54:16;5.60;;;3.55;;
12048;SDS011;6085;49.452;8.502;2024-03-02T22:58:18;3.38;;;3.03;;
12048;SDS011;6085;49.452;8.502;2024-03-02T23:02:20;6.45;;;3.70;;
12048;SDS011;6085;49.452;8.502;2024-03-02T23:06:23;5.95;;;3.95;;
12048;SDS011;6085;49.452;8.502;2024-03-02T23:10:27;4.65;;;3.28;;
12048;SDS011;6085;49.452;8.502;2024-03-02T23:14:29;7.70;;;3.53;;
12048;SDS011;6085;49.452;8.502;2024-03-02T23:18:31;5.07;;;4.00;;
12048;SDS011;6085;49.452;8.502;2024-03-02T23:22:33;6.57;;;3.20;;
12048;SDS011;6085;49.452;8.502;2024-03-02T23:26:36;5.25;;;3.70;;
12048;SDS011;6085;49.452;8.502;2024-03-02T23:30:38;4.72;;;3.05;;
12048;SDS011;6085;49.452;8.502;2024-03-02T23:34:40;5.75;;;3.88;;
12048;SDS011;6085;49.452;8.502;2024-03-02T23:38:42;7.97;;;4.22;;
12048;SDS011;6085;49.452;8.502;2024-03-02T23:42:45;6.93;;;4.05;;
12048;SDS011;6085;49.452;8.502;2024-03-02T23:46:47;5.55;;;3.42;;
12048;SDS011;6085;49.452;8.502;2024-03-02T23:50:49;4.43;;;3.92;;
12048;SDS011;6085;49.452;8.502;2024-03-02T23:54:51;5.20;;;3.47;;
12048;SDS011;6085;49.452;8.502;2024-03-02T23:58:54;8.75;;;3.20;;
